sensor_id;sensor_type;location;lat;lon;timestamp;P1;durP1;ratioP1;P2;durP2;ratioP2
48189;SDS011;33980;47.436;18.926;2023-08-17T00:02:26;4.10;;;2.15;;
48189;SDS011;33980;47.436;18.926;2023-08-17T00:04:55;3.50;;;2.08;;
48189;SDS011;33980;47.436;18.926;2023-08-17T00:07:24;3.17;;;1.85;;
48189;SDS011;33980;47.436;18.926;2023-08-17T00:09:55;3.78;;;2.30;;
48189;SDS011;33980;47.436;18.926;2023-08-17T00:12:24;4.20;;;2.42;;
48189;SDS011;33980;47.436;18.926;2023-08-17T00:14:53;3.95;;;2.40;;
48189;SDS011;33980;47.436;18.926;2023-08-17T00:17:22;4.20;;;2.15;;
48189;SDS011;33980;47.436;18.926;2023-08-17T00:19:53;4.35;;;2.03;;
48189;SDS011;33980;47.436;18.926;2023-08-17T00:22:21;3.33;;;2.03;;
48189;SDS011;33980;47.436;18.926;2023-08-17T00:24:50;4.10;;;2.08;;
48189;SDS011;33980;47.436;18.926;2023-08-17T00:27:19;3.97;;;1.80;;
48189;SDS011;33980;47.436;18.926;2023-08-17T00:29:48;4.47;;;2.37;;
48189;SDS011;33980;47.436;18.926;2023-08-17T00:32:17;2.83;;;1.60;;
48189;SDS011;33980;47.436;18.926;2023-08-17T00:34:47;3.80;;;2.37;;
48189;SDS011;33980;47.436;18.926;2023-08-17T00:37:17;5.03;;;2.47;;
48189;SDS011;33980;47.436;18.926;2023-08-17T00:39:46;3.53;;;1.77;;
48189;SDS011;33980;47.436;18.926;2023-08-17T00:42:15;4.00;;;2.40;;
48189;SDS011;33980;47.436;18.926;2023-08-17T00:44:43;5.32;;;2.37;;
48189;SDS011;33980;47.436;18.926;2023-08-17T00:47:12;3.55;;;2.25;;
48189;SDS011;33980;47.436;18.926;2023-08-17T00:49:42;2.95;;;1.80;;
48189;SDS011;33980;47.436;18.926;2023-08-17T00:52:10;3.22;;;1.77;;
48189;SDS011;33980;47.436;18.926;2023-08-17T00:54:45;6.15;;;2.95;;
48189;SDS011;33980;47.436;18.926;2023-08-17T00:57:14;4.65;;;2.10;;
48189;SDS011;33980;47.436;18.926;2023-08-17T00:59:43;4.22;;;2.42;;
48189;SDS011;33980;47.436;18.926;2023-08-17T01:02:30;4.85;;;2.67;;
48189;SDS011;33980;47.436;18.926;2023-08-17T01:04:58;3.15;;;1.90;;
48189;SDS011;33980;47.436;18.926;2023-08-17T01:07:27;4.75;;;2.53;;
48189;SDS011;33980;47.436;18.926;2023-08-17T01:09:58;3.03;;;1.98;;
48189;SDS011;33980;47.436;18.926;2023-08-17T01:12:29;4.50;;;2.67;;
48189;SDS011;33980;47.436;18.926;2023-08-17T01:15:01;3.75;;;2.33;;
48189;SDS011;33980;47.436;18.926;2023-08-17T01:17:36;6.05;;;1.70;;
48189;SDS011;33980;47.436;18.926;2023-08-17T01:20:07;2.45;;;1.52;;
48189;SDS011;33980;47.436;18.926;2023-08-17T01:22:40;4.28;;;2.20;;
48189;SDS011;33980;47.436;18.926;2023-08-17T01:25:11;3.20;;;1.90;;
48189;SDS011;33980;47.436;18.926;2023-08-17T01:27:43;4.30;;;2.40;;
48189;SDS011;33980;47.436;18.926;2023-08-17T01:30:14;3.22;;;1.92;;
48189;SDS011;33980;47.436;18.926;2023-08-17T01:32:44;3.97;;;2.47;;
48189;SDS011;33980;47.436;18.926;2023-08-17T01:35:18;3.62;;;1.92;;
48189;SDS011;33980;47.436;18.926;2023-08-17T01:37:50;3.55;;;2.03;;
48189;SDS011;33980;47.436;18.926;2023-08-17T01:40:22;4.20;;;1.92;;
48189;SDS011;33980;47.436;18.926;2023-08-17T01:42:51;5.00;;;2.33;;
48189;SDS011;33980;47.436;18.926;2023-08-17T01:45:21;4.22;;;2.17;;
48189;SDS011;33980;47.436;18.926;2023-08-17T01:47:49;4.32;;;2.33;;
48189;SDS011;33980;47.436;18.926;2023-08-17T01:50:18;3.95;;;2.50;;
48189;SDS011;33980;47.436;18.926;2023-08-17T01:52:49;2.95;;;1.87;;
48189;SDS011;33980;47.436;18.926;2023-08-17T01:55:22;3.53;;;2.12;;
48189;SDS011;33980;47.436;18.926;2023-08-17T01:57:51;4.20;;;2.42;;
48189;SDS011;33980;47.436;18.926;2023-08-17T02:00:19;2.70;;;1.87;;
48189;SDS011;33980;47.436;18.926;2023-08-17T02:02:48;3.70;;;2.28;;
48189;SDS011;33980;47.436;18.926;2023-08-17T02:05:18;4.37;;;2.20;;
48189;SDS011;33980;47.436;18.926;2023-08-17T02:07:46;4.47;;;2.40;;
48189;SDS011;33980;47.436;18.926;2023-08-17T02:10:15;2.45;;;1.77;;
48189;SDS011;33980;47.436;18.926;2023-08-17T02:12:46;4.70;;;2.62;;
48189;SDS011;33980;47.436;18.926;2023-08-17T02:15:15;4.40;;;2.65;;
48189;SDS011;33980;47.436;18.926;2023-08-17T02:17:44;5.78;;;3.03;;
48189;SDS011;33980;47.436;18.926;2023-08-17T02:20:13;4.62;;;2.72;;
48189;SDS011;33980;47.436;18.926;2023-08-17T02:22:42;4.10;;;2.58;;
48189;SDS011;33980;47.436;18.926;2023-08-17T02:25:11;3.42;;;2.17;;
48189;SDS011;33980;47.436;18.926;2023-08-17T02:27:39;3.20;;;2.08;;
48189;SDS011;33980;47.436;18.926;2023-08-17T02:30:10;4.20;;;2.33;;
48189;SDS011;33980;47.436;18.926;2023-08-17T02:32:40;6.00;;;3.22;;
48189;SDS011;33980;47.436;18.926;2023-08-17T02:35:09;4.55;;;2.65;;
48189;SDS011;33980;47.436;18.926;2023-08-17T02:37:38;4.35;;;2.50;;
48189;SDS011;33980;47.436;18.926;2023-08-17T02:40:09;5.70;;;3.00;;
48189;SDS011;33980;47.436;18.926;2023-08-17T02:42:39;4.82;;;2.83;;
48189;SDS011;33980;47.436;18.926;2023-08-17T02:45:08;4.68;;;2.78;;
48189;SDS011;33980;47.436;18.926;2023-08-17T02:47:39;3.95;;;2.45;;
48189;SDS011;33980;47.436;18.926;2023-08-17T02:50:08;6.62;;;3.10;;
48189;SDS011;33980;47.436;18.926;2023-08-17T02:52:37;4.15;;;2.47;;
48189;SDS011;33980;47.436;18.926;2023-08-17T02:55:06;3.67;;;2.35;;
48189;SDS011;33980;47.436;18.926;2023-08-17T02:57:35;4.78;;;2.75;;
48189;SDS011;33980;47.436;18.926;2023-08-17T03:00:04;3.53;;;2.42;;
48189;SDS011;33980;47.436;18.926;2023-08-17T03:02:35;4.95;;;2.83;;
48189;SDS011;33980;47.436;18.926;2023-08-17T03:05:05;4.70;;;2.72;;
48189;SDS011;33980;47.436;18.926;2023-08-17T03:07:34;4.78;;;2.65;;
48189;SDS011;33980;47.436;18.926;2023-08-17T03:10:03;3.55;;;2.40;;
48189;SDS011;33980;47.436;18.926;2023-08-17T03:12:32;3.40;;;2.37;;
48189;SDS011;33980;47.436;18.926;2023-08-17T03:15:01;4.75;;;2.85;;
48189;SDS011;33980;47.436;18.926;2023-08-17T03:17:30;3.83;;;2.30;;
48189;SDS011;33980;47.436;18.926;2023-08-17T03:20:01;5.32;;;2.50;;
48189;SDS011;33980;47.436;18.926;2023-08-17T03:22:30;4.03;;;2.90;;
48189;SDS011;33980;47.436;18.926;2023-08-17T03:24:59;4.00;;;2.40;;
48189;SDS011;33980;47.436;18.926;2023-08-17T03:27:28;3.50;;;2.20;;
48189;SDS011;33980;47.436;18.926;2023-08-17T03:29:57;3.65;;;2.53;;
48189;SDS011;33980;47.436;18.926;2023-08-17T03:32:26;4.90;;;2.70;;
48189;SDS011;33980;47.436;18.926;2023-08-17T03:34:55;4.28;;;2.60;;
48189;SDS011;33980;47.436;18.926;2023-08-17T03:37:25;4.80;;;2.97;;
48189;SDS011;33980;47.436;18.926;2023-08-17T03:39:55;3.35;;;2.42;;
48189;SDS011;33980;47.436;18.926;2023-08-17T03:42:23;3.20;;;2.12;;
48189;SDS011;33980;47.436;18.926;2023-08-17T03:44:52;4.22;;;2.15;;
48189;SDS011;33980;47.436;18.926;2023-08-17T03:47:21;4.55;;;2.78;;
48189;SDS011;33980;47.436;18.926;2023-08-17T03:49:51;3.92;;;2.30;;
48189;SDS011;33980;47.436;18.926;2023-08-17T03:52:20;4.53;;;2.15;;
48189;SDS011;33980;47.436;18.926;2023-08-17T03:54:50;3.50;;;2.25;;
48189;SDS011;33980;47.436;18.926;2023-08-17T03:57:19;3.50;;;2.22;;
48189;SDS011;33980;47.436;18.926;2023-08-17T03:59:48;3.62;;;2.37;;
48189;SDS011;33980;47.436;18.926;2023-08-17T04:02:17;4.40;;;2.78;;
48189;SDS011;33980;47.436;18.926;2023-08-17T04:04:46;3.70;;;2.20;;
48189;SDS011;33980;47.436;18.926;2023-08-17T04:07:20;4.85;;;2.65;;
48189;SDS011;33980;47.436;18.926;2023-08-17T04:09:55;4.25;;;2.28;;
48189;SDS011;33980;47.436;18.926;2023-08-17T04:12:23;3.67;;;2.05;;
48189;SDS011;33980;47.436;18.926;2023-08-17T04:14:54;4.00;;;2.30;;
48189;SDS011;33980;47.436;18.926;2023-08-17T04:17:22;5.37;;;2.60;;
48189;SDS011;33980;47.436;18.926;2023-08-17T04:19:52;5.87;;;2.65;;
48189;SDS011;33980;47.436;18.926;2023-08-17T04:22:21;4.20;;;2.55;;
48189;SDS011;33980;47.436;18.926;2023-08-17T04:24:50;4.20;;;2.50;;
48189;SDS011;33980;47.436;18.926;2023-08-17T04:27:20;5.28;;;2.37;;
48189;SDS011;33980;47.436;18.926;2023-08-17T04:29:49;3.47;;;2.30;;
48189;SDS011;33980;47.436;18.926;2023-08-17T04:32:18;4.25;;;2.28;;
48189;SDS011;33980;47.436;18.926;2023-08-17T04:34:48;4.28;;;2.60;;
48189;SDS011;33980;47.436;18.926;2023-08-17T04:37:19;2.65;;;1.87;;
48189;SDS011;33980;47.436;18.926;2023-08-17T04:39:48;3.25;;;2.10;;
48189;SDS011;33980;47.436;18.926;2023-08-17T04:42:19;3.47;;;2.07;;
48189;SDS011;33980;47.436;18.926;2023-08-17T04:44:49;4.43;;;2.37;;
48189;SDS011;33980;47.436;18.926;2023-08-17T04:47:18;2.85;;;1.77;;
48189;SDS011;33980;47.436;18.926;2023-08-17T04:49:46;5.15;;;2.75;;
48189;SDS011;33980;47.436;18.926;2023-08-17T04:52:15;3.87;;;2.12;;
48189;SDS011;33980;47.436;18.926;2023-08-17T04:54:44;3.75;;;2.72;;
48189;SDS011;33980;47.436;18.926;2023-08-17T04:57:13;6.82;;;2.00;;
48189;SDS011;33980;47.436;18.926;2023-08-17T04:59:44;3.08;;;1.92;;
48189;SDS011;33980;47.436;18.926;2023-08-17T05:02:14;4.10;;;2.40;;
48189;SDS011;33980;47.436;18.926;2023-08-17T05:04:43;5.15;;;2.87;;
48189;SDS011;33980;47.436;18.926;2023-08-17T05:07:14;4.80;;;2.72;;
48189;SDS011;33980;47.436;18.926;2023-08-17T05:09:43;4.50;;;2.50;;
48189;SDS011;33980;47.436;18.926;2023-08-17T05:12:12;4.87;;;3.45;;
48189;SDS011;33980;47.436;18.926;2023-08-17T05:14:41;5.62;;;2.17;;
48189;SDS011;33980;47.436;18.926;2023-08-17T05:17:12;5.30;;;2.75;;
48189;SDS011;33980;47.436;18.926;2023-08-17T05:19:40;5.90;;;3.60;;
48189;SDS011;33980;47.436;18.926;2023-08-17T05:22:10;5.32;;;2.75;;
48189;SDS011;33980;47.436;18.926;2023-08-17T05:24:39;3.85;;;2.42;;
48189;SDS011;33980;47.436;18.926;2023-08-17T05:27:08;5.68;;;3.05;;
48189;SDS011;33980;47.436;18.926;2023-08-17T05:29:37;3.95;;;2.25;;
48189;SDS011;33980;47.436;18.926;2023-08-17T05:32:06;4.87;;;2.95;;
48189;SDS011;33980;47.436;18.926;2023-08-17T05:34:36;5.55;;;2.70;;
48189;SDS011;33980;47.436;18.926;2023-08-17T05:37:05;4.12;;;2.53;;
48189;SDS011;33980;47.436;18.926;2023-08-17T05:39:35;4.30;;;2.33;;
48189;SDS011;33980;47.436;18.926;2023-08-17T05:42:03;4.93;;;2.60;;
48189;SDS011;33980;47.436;18.926;2023-08-17T05:44:35;4.87;;;2.25;;
48189;SDS011;33980;47.436;18.926;2023-08-17T05:47:04;4.32;;;2.47;;
48189;SDS011;33980;47.436;18.926;2023-08-17T05:49:32;4.32;;;3.10;;
48189;SDS011;33980;47.436;18.926;2023-08-17T05:52:03;5.03;;;2.37;;
48189;SDS011;33980;47.436;18.926;2023-08-17T05:54:32;3.70;;;2.22;;
48189;SDS011;33980;47.436;18.926;2023-08-17T05:57:01;3.87;;;2.40;;
48189;SDS011;33980;47.436;18.926;2023-08-17T05:59:30;4.10;;;2.05;;
48189;SDS011;33980;47.436;18.926;2023-08-17T06:01:59;4.18;;;2.40;;
48189;SDS011;33980;47.436;18.926;2023-08-17T06:04:28;3.97;;;2.70;;
48189;SDS011;33980;47.436;18.926;2023-08-17T06:06:57;4.75;;;2.60;;
48189;SDS011;33980;47.436;18.926;2023-08-17T06:09:27;5.75;;;2.80;;
48189;SDS011;33980;47.436;18.926;2023-08-17T06:11:56;4.18;;;2.40;;
48189;SDS011;33980;47.436;18.926;2023-08-17T06:14:24;4.93;;;2.58;;
48189;SDS011;33980;47.436;18.926;2023-08-17T06:16:53;4.32;;;2.62;;
48189;SDS011;33980;47.436;18.926;2023-08-17T06:19:22;4.37;;;2.65;;
48189;SDS011;33980;47.436;18.926;2023-08-17T06:21:51;4.07;;;2.42;;
48189;SDS011;33980;47.436;18.926;2023-08-17T06:24:20;4.72;;;2.47;;
48189;SDS011;33980;47.436;18.926;2023-08-17T06:26:50;4.15;;;2.17;;
48189;SDS011;33980;47.436;18.926;2023-08-17T06:29:19;4.77;;;2.77;;
48189;SDS011;33980;47.436;18.926;2023-08-17T06:31:48;4.40;;;2.58;;
48189;SDS011;33980;47.436;18.926;2023-08-17T06:34:17;5.55;;;3.03;;
48189;SDS011;33980;47.436;18.926;2023-08-17T06:36:56;4.00;;;2.03;;
48189;SDS011;33980;47.436;18.926;2023-08-17T06:39:25;4.55;;;2.25;;
48189;SDS011;33980;47.436;18.926;2023-08-17T06:41:55;5.32;;;3.03;;
48189;SDS011;33980;47.436;18.926;2023-08-17T06:44:24;5.30;;;2.85;;
48189;SDS011;33980;47.436;18.926;2023-08-17T06:46:53;4.50;;;2.42;;
48189;SDS011;33980;47.436;18.926;2023-08-17T06:49:22;4.65;;;2.83;;
48189;SDS011;33980;47.436;18.926;2023-08-17T06:51:51;4.25;;;2.60;;
48189;SDS011;33980;47.436;18.926;2023-08-17T06:54:20;5.28;;;2.85;;
48189;SDS011;33980;47.436;18.926;2023-08-17T06:56:48;5.62;;;3.15;;
48189;SDS011;33980;47.436;18.926;2023-08-17T06:59:18;3.53;;;2.30;;
48189;SDS011;33980;47.436;18.926;2023-08-17T07:01:48;4.37;;;2.65;;
48189;SDS011;33980;47.436;18.926;2023-08-17T07:04:17;4.40;;;2.25;;
48189;SDS011;33980;47.436;18.926;2023-08-17T07:06:45;7.30;;;3.08;;
48189;SDS011;33980;47.436;18.926;2023-08-17T07:09:15;6.07;;;2.92;;
48189;SDS011;33980;47.436;18.926;2023-08-17T07:11:44;4.68;;;2.65;;
48189;SDS011;33980;47.436;18.926;2023-08-17T07:14:13;5.90;;;3.12;;
48189;SDS011;33980;47.436;18.926;2023-08-17T07:16:43;4.35;;;2.22;;
48189;SDS011;33980;47.436;18.926;2023-08-17T07:19:12;4.53;;;2.83;;
48189;SDS011;33980;47.436;18.926;2023-08-17T07:21:41;4.80;;;2.58;;
48189;SDS011;33980;47.436;18.926;2023-08-17T07:24:14;4.37;;;2.65;;
48189;SDS011;33980;47.436;18.926;2023-08-17T07:26:43;6.37;;;3.42;;
48189;SDS011;33980;47.436;18.926;2023-08-17T07:29:12;4.20;;;2.58;;
48189;SDS011;33980;47.436;18.926;2023-08-17T07:31:41;5.18;;;3.08;;
48189;SDS011;33980;47.436;18.926;2023-08-17T07:34:11;5.30;;;2.55;;
48189;SDS011;33980;47.436;18.926;2023-08-17T07:36:41;4.85;;;2.55;;
48189;SDS011;33980;47.436;18.926;2023-08-17T07:39:10;5.62;;;2.78;;
48189;SDS011;33980;47.436;18.926;2023-08-17T07:41:38;5.53;;;2.92;;
48189;SDS011;33980;47.436;18.926;2023-08-17T07:44:07;4.87;;;2.62;;
48189;SDS011;33980;47.436;18.926;2023-08-17T07:46:36;5.95;;;3.53;;
48189;SDS011;33980;47.436;18.926;2023-08-17T07:49:05;4.40;;;2.55;;
48189;SDS011;33980;47.436;18.926;2023-08-17T07:51:50;4.85;;;2.80;;
48189;SDS011;33980;47.436;18.926;2023-08-17T07:54:19;5.63;;;3.33;;
48189;SDS011;33980;47.436;18.926;2023-08-17T07:56:47;4.57;;;2.75;;
48189;SDS011;33980;47.436;18.926;2023-08-17T07:59:16;3.62;;;2.40;;
48189;SDS011;33980;47.436;18.926;2023-08-17T08:01:45;3.87;;;3.00;;
48189;SDS011;33980;47.436;18.926;2023-08-17T08:04:16;4.72;;;2.30;;
48189;SDS011;33980;47.436;18.926;2023-08-17T08:06:45;4.55;;;2.30;;
48189;SDS011;33980;47.436;18.926;2023-08-17T08:09:15;3.08;;;1.85;;
48189;SDS011;33980;47.436;18.926;2023-08-17T08:11:44;3.85;;;2.62;;
48189;SDS011;33980;47.436;18.926;2023-08-17T08:14:13;3.25;;;2.17;;
48189;SDS011;33980;47.436;18.926;2023-08-17T08:16:41;3.67;;;2.10;;
48189;SDS011;33980;47.436;18.926;2023-08-17T08:19:10;4.60;;;2.60;;
48189;SDS011;33980;47.436;18.926;2023-08-17T08:21:39;4.60;;;3.08;;
48189;SDS011;33980;47.436;18.926;2023-08-17T08:24:08;4.07;;;2.25;;
48189;SDS011;33980;47.436;18.926;2023-08-17T08:26:58;3.62;;;1.92;;
48189;SDS011;33980;47.436;18.926;2023-08-17T08:29:27;3.22;;;1.98;;
48189;SDS011;33980;47.436;18.926;2023-08-17T08:31:56;3.80;;;2.10;;
48189;SDS011;33980;47.436;18.926;2023-08-17T08:34:27;3.10;;;1.90;;
48189;SDS011;33980;47.436;18.926;2023-08-17T08:36:56;3.42;;;1.87;;
48189;SDS011;33980;47.436;18.926;2023-08-17T08:39:24;4.40;;;2.42;;
48189;SDS011;33980;47.436;18.926;2023-08-17T08:41:54;3.45;;;2.37;;
48189;SDS011;33980;47.436;18.926;2023-08-17T08:44:24;3.83;;;1.98;;
48189;SDS011;33980;47.436;18.926;2023-08-17T08:46:53;3.75;;;2.08;;
48189;SDS011;33980;47.436;18.926;2023-08-17T08:49:23;4.82;;;2.25;;
48189;SDS011;33980;47.436;18.926;2023-08-17T08:51:52;3.03;;;1.62;;
48189;SDS011;33980;47.436;18.926;2023-08-17T08:54:26;3.67;;;2.08;;
48189;SDS011;33980;47.436;18.926;2023-08-17T08:57:12;4.00;;;2.53;;
48189;SDS011;33980;47.436;18.926;2023-08-17T08:59:43;4.53;;;2.50;;
48189;SDS011;33980;47.436;18.926;2023-08-17T09:02:16;4.25;;;1.58;;
48189;SDS011;33980;47.436;18.926;2023-08-17T09:04:51;2.30;;;1.52;;
48189;SDS011;33980;47.436;18.926;2023-08-17T09:07:20;3.03;;;1.92;;
48189;SDS011;33980;47.436;18.926;2023-08-17T09:09:51;5.70;;;3.05;;
48189;SDS011;33980;47.436;18.926;2023-08-17T09:12:21;3.47;;;2.05;;
48189;SDS011;33980;47.436;18.926;2023-08-17T09:15:07;2.80;;;1.40;;
48189;SDS011;33980;47.436;18.926;2023-08-17T09:17:37;2.55;;;1.35;;
48189;SDS011;33980;47.436;18.926;2023-08-17T09:20:08;2.97;;;1.57;;
48189;SDS011;33980;47.436;18.926;2023-08-17T09:25:09;4.28;;;1.98;;
48189;SDS011;33980;47.436;18.926;2023-08-17T09:27:38;3.80;;;1.40;;
48189;SDS011;33980;47.436;18.926;2023-08-17T09:30:10;1.77;;;1.12;;
48189;SDS011;33980;47.436;18.926;2023-08-17T09:32:46;5.15;;;2.20;;
48189;SDS011;33980;47.436;18.926;2023-08-17T09:35:17;3.40;;;1.58;;
48189;SDS011;33980;47.436;18.926;2023-08-17T09:37:55;2.17;;;1.23;;
48189;SDS011;33980;47.436;18.926;2023-08-17T09:40:25;4.43;;;2.00;;
48189;SDS011;33980;47.436;18.926;2023-08-17T09:42:54;2.65;;;1.40;;
48189;SDS011;33980;47.436;18.926;2023-08-17T09:45:25;2.40;;;1.48;;
48189;SDS011;33980;47.436;18.926;2023-08-17T09:47:58;3.08;;;1.40;;
48189;SDS011;33980;47.436;18.926;2023-08-17T09:50:30;2.28;;;1.50;;
48189;SDS011;33980;47.436;18.926;2023-08-17T09:52:59;4.15;;;1.85;;
48189;SDS011;33980;47.436;18.926;2023-08-17T09:55:29;2.92;;;1.50;;
48189;SDS011;33980;47.436;18.926;2023-08-17T09:57:58;1.92;;;1.12;;
48189;SDS011;33980;47.436;18.926;2023-08-17T10:00:28;1.52;;;1.08;;
48189;SDS011;33980;47.436;18.926;2023-08-17T10:03:02;2.87;;;1.87;;
48189;SDS011;33980;47.436;18.926;2023-08-17T10:05:38;2.17;;;1.25;;
48189;SDS011;33980;47.436;18.926;2023-08-17T10:08:16;2.50;;;1.40;;
48189;SDS011;33980;47.436;18.926;2023-08-17T10:10:47;2.25;;;1.30;;
48189;SDS011;33980;47.436;18.926;2023-08-17T10:13:23;2.55;;;1.40;;
48189;SDS011;33980;47.436;18.926;2023-08-17T10:16:02;2.55;;;1.17;;
48189;SDS011;33980;47.436;18.926;2023-08-17T10:18:33;2.83;;;1.23;;
48189;SDS011;33980;47.436;18.926;2023-08-17T10:21:07;1.87;;;1.25;;
48189;SDS011;33980;47.436;18.926;2023-08-17T10:23:40;3.35;;;1.70;;
48189;SDS011;33980;47.436;18.926;2023-08-17T10:26:10;3.33;;;1.55;;
48189;SDS011;33980;47.436;18.926;2023-08-17T10:28:39;3.25;;;1.62;;
48189;SDS011;33980;47.436;18.926;2023-08-17T10:31:09;1.98;;;1.12;;
48189;SDS011;33980;47.436;18.926;2023-08-17T10:36:09;2.12;;;1.10;;
48189;SDS011;33980;47.436;18.926;2023-08-17T10:38:38;2.37;;;1.48;;
48189;SDS011;33980;47.436;18.926;2023-08-17T10:41:08;1.87;;;1.25;;
48189;SDS011;33980;47.436;18.926;2023-08-17T10:43:53;1.70;;;1.10;;
48189;SDS011;33980;47.436;18.926;2023-08-17T10:46:32;1.98;;;1.30;;
48189;SDS011;33980;47.436;18.926;2023-08-17T10:49:05;3.70;;;1.15;;
48189;SDS011;33980;47.436;18.926;2023-08-17T10:51:35;3.28;;;1.75;;
48189;SDS011;33980;47.436;18.926;2023-08-17T10:54:04;3.10;;;1.80;;
48189;SDS011;33980;47.436;18.926;2023-08-17T10:56:33;3.25;;;1.55;;
48189;SDS011;33980;47.436;18.926;2023-08-17T10:59:03;2.20;;;1.37;;
48189;SDS011;33980;47.436;18.926;2023-08-17T11:01:56;2.42;;;2.05;;
48189;SDS011;33980;47.436;18.926;2023-08-17T11:04:25;2.37;;;1.45;;
48189;SDS011;33980;47.436;18.926;2023-08-17T11:07:02;2.62;;;1.52;;
48189;SDS011;33980;47.436;18.926;2023-08-17T11:09:31;2.70;;;1.60;;
48189;SDS011;33980;47.436;18.926;2023-08-17T11:12:04;2.53;;;1.23;;
48189;SDS011;33980;47.436;18.926;2023-08-17T11:14:33;2.40;;;1.23;;
48189;SDS011;33980;47.436;18.926;2023-08-17T11:17:06;1.73;;;1.25;;
48189;SDS011;33980;47.436;18.926;2023-08-17T11:19:41;2.60;;;1.27;;
48189;SDS011;33980;47.436;18.926;2023-08-17T11:22:09;3.60;;;1.73;;
48189;SDS011;33980;47.436;18.926;2023-08-17T11:24:38;2.53;;;1.30;;
48189;SDS011;33980;47.436;18.926;2023-08-17T11:27:11;4.47;;;2.87;;
48189;SDS011;33980;47.436;18.926;2023-08-17T11:29:40;3.17;;;1.50;;
48189;SDS011;33980;47.436;18.926;2023-08-17T11:32:12;1.35;;;1.10;;
48189;SDS011;33980;47.436;18.926;2023-08-17T11:34:44;6.28;;;2.37;;
48189;SDS011;33980;47.436;18.926;2023-08-17T11:37:13;4.22;;;1.87;;
48189;SDS011;33980;47.436;18.926;2023-08-17T11:39:44;2.03;;;1.20;;
48189;SDS011;33980;47.436;18.926;2023-08-17T11:42:13;2.80;;;1.50;;
48189;SDS011;33980;47.436;18.926;2023-08-17T11:44:46;4.18;;;1.48;;
48189;SDS011;33980;47.436;18.926;2023-08-17T11:47:17;1.92;;;1.08;;
48189;SDS011;33980;47.436;18.926;2023-08-17T11:49:47;2.25;;;1.35;;
48189;SDS011;33980;47.436;18.926;2023-08-17T11:52:19;2.85;;;1.50;;
48189;SDS011;33980;47.436;18.926;2023-08-17T11:54:50;3.45;;;1.50;;
48189;SDS011;33980;47.436;18.926;2023-08-17T11:57:19;2.55;;;1.37;;
48189;SDS011;33980;47.436;18.926;2023-08-17T11:59:48;1.90;;;1.23;;
48189;SDS011;33980;47.436;18.926;2023-08-17T12:02:18;2.72;;;1.50;;
48189;SDS011;33980;47.436;18.926;2023-08-17T12:04:47;2.42;;;1.33;;
48189;SDS011;33980;47.436;18.926;2023-08-17T12:07:19;4.00;;;1.75;;
48189;SDS011;33980;47.436;18.926;2023-08-17T12:09:49;2.10;;;1.37;;
48189;SDS011;33980;47.436;18.926;2023-08-17T12:12:21;3.28;;;1.77;;
48189;SDS011;33980;47.436;18.926;2023-08-17T12:14:50;4.05;;;1.50;;
48189;SDS011;33980;47.436;18.926;2023-08-17T12:17:25;2.30;;;1.55;;
48189;SDS011;33980;47.436;18.926;2023-08-17T12:19:54;1.77;;;1.27;;
48189;SDS011;33980;47.436;18.926;2023-08-17T12:22:26;3.75;;;1.90;;
48189;SDS011;33980;47.436;18.926;2023-08-17T12:24:56;2.85;;;1.92;;
48189;SDS011;33980;47.436;18.926;2023-08-17T12:27:25;2.53;;;1.27;;
48189;SDS011;33980;47.436;18.926;2023-08-17T12:29:53;2.97;;;1.35;;
48189;SDS011;33980;47.436;18.926;2023-08-17T12:32:24;2.65;;;1.52;;
48189;SDS011;33980;47.436;18.926;2023-08-17T12:37:30;2.12;;;1.20;;
48189;SDS011;33980;47.436;18.926;2023-08-17T12:39:59;2.58;;;1.40;;
48189;SDS011;33980;47.436;18.926;2023-08-17T12:42:28;3.58;;;1.65;;
48189;SDS011;33980;47.436;18.926;2023-08-17T12:44:57;3.35;;;1.52;;
48189;SDS011;33980;47.436;18.926;2023-08-17T12:47:29;2.10;;;1.25;;
48189;SDS011;33980;47.436;18.926;2023-08-17T12:50:01;3.47;;;1.50;;
48189;SDS011;33980;47.436;18.926;2023-08-17T12:52:31;1.77;;;1.15;;
48189;SDS011;33980;47.436;18.926;2023-08-17T12:55:00;2.65;;;1.60;;
48189;SDS011;33980;47.436;18.926;2023-08-17T12:57:28;2.42;;;1.42;;
48189;SDS011;33980;47.436;18.926;2023-08-17T13:00:00;2.95;;;1.60;;
48189;SDS011;33980;47.436;18.926;2023-08-17T13:02:31;1.90;;;1.20;;
48189;SDS011;33980;47.436;18.926;2023-08-17T13:05:00;2.62;;;1.42;;
48189;SDS011;33980;47.436;18.926;2023-08-17T13:07:31;2.55;;;1.40;;
48189;SDS011;33980;47.436;18.926;2023-08-17T13:10:05;2.83;;;1.60;;
48189;SDS011;33980;47.436;18.926;2023-08-17T13:12:35;3.25;;;1.85;;
48189;SDS011;33980;47.436;18.926;2023-08-17T13:15:04;1.95;;;1.15;;
48189;SDS011;33980;47.436;18.926;2023-08-17T13:17:38;2.90;;;1.65;;
48189;SDS011;33980;47.436;18.926;2023-08-17T13:20:07;3.12;;;1.62;;
48189;SDS011;33980;47.436;18.926;2023-08-17T13:22:37;3.22;;;1.62;;
48189;SDS011;33980;47.436;18.926;2023-08-17T13:25:06;3.08;;;1.50;;
48189;SDS011;33980;47.436;18.926;2023-08-17T13:27:35;2.67;;;1.45;;
48189;SDS011;33980;47.436;18.926;2023-08-17T13:30:04;3.83;;;1.70;;
48189;SDS011;33980;47.436;18.926;2023-08-17T13:32:39;2.62;;;1.40;;
48189;SDS011;33980;47.436;18.926;2023-08-17T13:35:11;2.55;;;1.40;;
48189;SDS011;33980;47.436;18.926;2023-08-17T13:37:41;4.75;;;2.00;;
48189;SDS011;33980;47.436;18.926;2023-08-17T13:40:10;4.75;;;1.80;;
48189;SDS011;33980;47.436;18.926;2023-08-17T13:42:39;3.13;;;1.70;;
48189;SDS011;33980;47.436;18.926;2023-08-17T13:45:08;4.78;;;1.83;;
48189;SDS011;33980;47.436;18.926;2023-08-17T13:47:41;3.35;;;1.45;;
48189;SDS011;33980;47.436;18.926;2023-08-17T13:50:11;1.90;;;1.20;;
48189;SDS011;33980;47.436;18.926;2023-08-17T13:52:39;1.70;;;1.35;;
48189;SDS011;33980;47.436;18.926;2023-08-17T13:55:08;2.40;;;1.30;;
48189;SDS011;33980;47.436;18.926;2023-08-17T13:57:37;2.37;;;1.48;;
48189;SDS011;33980;47.436;18.926;2023-08-17T14:00:09;1.90;;;1.37;;
48189;SDS011;33980;47.436;18.926;2023-08-17T14:02:39;2.70;;;1.45;;
48189;SDS011;33980;47.436;18.926;2023-08-17T14:05:09;4.47;;;1.50;;
48189;SDS011;33980;47.436;18.926;2023-08-17T14:07:38;2.47;;;1.30;;
48189;SDS011;33980;47.436;18.926;2023-08-17T14:10:08;2.90;;;1.30;;
48189;SDS011;33980;47.436;18.926;2023-08-17T14:12:55;4.07;;;1.67;;
48189;SDS011;33980;47.436;18.926;2023-08-17T14:15:24;2.15;;;1.27;;
48189;SDS011;33980;47.436;18.926;2023-08-17T14:17:52;2.92;;;1.70;;
48189;SDS011;33980;47.436;18.926;2023-08-17T14:20:23;2.80;;;1.60;;
48189;SDS011;33980;47.436;18.926;2023-08-17T14:22:55;2.42;;;1.62;;
48189;SDS011;33980;47.436;18.926;2023-08-17T14:25:26;2.42;;;1.45;;
48189;SDS011;33980;47.436;18.926;2023-08-17T14:27:57;2.35;;;1.42;;
48189;SDS011;33980;47.436;18.926;2023-08-17T14:30:26;2.25;;;1.20;;
48189;SDS011;33980;47.436;18.926;2023-08-17T14:32:55;3.00;;;1.55;;
48189;SDS011;33980;47.436;18.926;2023-08-17T14:35:29;2.42;;;1.20;;
48189;SDS011;33980;47.436;18.926;2023-08-17T14:37:58;2.60;;;1.45;;
48189;SDS011;33980;47.436;18.926;2023-08-17T14:40:28;2.30;;;1.65;;
48189;SDS011;33980;47.436;18.926;2023-08-17T14:42:57;2.42;;;1.48;;
48189;SDS011;33980;47.436;18.926;2023-08-17T14:45:26;2.70;;;1.30;;
48189;SDS011;33980;47.436;18.926;2023-08-17T14:47:54;2.50;;;1.30;;
48189;SDS011;33980;47.436;18.926;2023-08-17T14:50:25;2.60;;;1.40;;
48189;SDS011;33980;47.436;18.926;2023-08-17T14:52:57;3.08;;;1.67;;
48189;SDS011;33980;47.436;18.926;2023-08-17T14:57:57;2.50;;;1.40;;
48189;SDS011;33980;47.436;18.926;2023-08-17T15:00:30;2.30;;;1.62;;
48189;SDS011;33980;47.436;18.926;2023-08-17T15:05:32;1.80;;;1.25;;